createdAt,value
2023-10-20T00:00:16.086Z,99.85
2023-10-20T00:02:44.835Z,100.00
2023-10-20T00:05:12.695Z,99.56
2023-10-20T00:07:40.385Z,100.00
2023-10-20T00:10:10.845Z,100.00
2023-10-20T00:12:40.383Z,100.00
2023-10-20T00:15:15.554Z,100.00
2023-10-20T00:17:44.176Z,100.00
2023-10-20T00:20:12.386Z,100.00
2023-10-20T00:22:40.487Z,100.00
2023-10-20T00:25:08.538Z,100.00
2023-10-20T00:27:36.078Z,100.00
2023-10-20T00:30:03.914Z,100.00
2023-10-20T00:32:32.271Z,100.00
2023-10-20T00:35:00.039Z,100.00
2023-10-20T00:37:27.588Z,100.00
2023-10-20T00:39:55.200Z,100.00
2023-10-20T00:42:22.795Z,100.00
2023-10-20T00:44:50.498Z,100.00
2023-10-20T00:47:19.531Z,100.00
2023-10-20T00:49:47.425Z,100.00
2023-10-20T00:52:16.339Z,100.00
2023-10-20T00:54:48.651Z,100.00
2023-10-20T00:57:17.533Z,100.00
2023-10-20T00:59:45.530Z,100.00
2023-10-20T01:02:14.141Z,100.00
2023-10-20T01:04:42.034Z,100.00
2023-10-20T01:07:09.625Z,100.00
2023-10-20T01:09:37.242Z,100.00
2023-10-20T01:12:05.634Z,100.00
2023-10-20T01:14:37.263Z,100.00
2023-10-20T01:17:04.977Z,100.00
2023-10-20T01:19:33.230Z,100.00
2023-10-20T01:22:01.157Z,100.00
2023-10-20T01:24:28.930Z,100.00
2023-10-20T01:26:56.591Z,100.00
2023-10-20T01:29:27.254Z,100.00
2023-10-20T01:31:54.866Z,100.00
2023-10-20T01:34:22.884Z,100.00
2023-10-20T01:36:50.599Z,100.00
2023-10-20T01:39:18.495Z,100.00
2023-10-20T01:41:46.086Z,100.00
2023-10-20T01:44:16.754Z,100.00
2023-10-20T01:46:50.767Z,100.00
2023-10-20T01:49:20.295Z,100.00
2023-10-20T01:51:48.440Z,100.00
2023-10-20T01:54:15.943Z,100.00
2023-10-20T01:56:45.127Z,100.00
2023-10-20T01:59:13.106Z,100.00
2023-10-20T02:01:40.749Z,100.00
2023-10-20T02:04:09.189Z,100.00
2023-10-20T02:06:36.807Z,100.00
2023-10-20T02:09:04.611Z,100.00
2023-10-20T02:11:32.798Z,100.00
2023-10-20T02:14:00.436Z,100.00
2023-10-20T02:16:28.080Z,100.00
2023-10-20T02:18:55.932Z,100.00
2023-10-20T02:21:23.556Z,100.00
2023-10-20T02:23:51.588Z,100.00
2023-10-20T02:26:20.534Z,100.00
2023-10-20T02:28:48.655Z,100.00
2023-10-20T02:31:19.052Z,100.00
2023-10-20T02:33:47.237Z,100.00
2023-10-20T02:36:22.664Z,100.00
2023-10-20T02:38:55.213Z,100.00
2023-10-20T02:41:23.017Z,100.00
2023-10-20T02:43:50.626Z,100.00
2023-10-20T02:46:18.316Z,100.00
2023-10-20T02:48:46.629Z,100.00
2023-10-20T02:51:18.961Z,100.00
2023-10-20T02:53:48.521Z,100.00
2023-10-20T02:56:20.960Z,100.00
2023-10-20T02:58:49.105Z,100.00
2023-10-20T03:01:19.842Z,100.00
2023-10-20T03:03:47.799Z,100.00
2023-10-20T03:06:15.461Z,100.00
2023-10-20T03:08:44.387Z,100.00
2023-10-20T03:11:12.736Z,100.00
2023-10-20T03:13:40.360Z,100.00
2023-10-20T03:16:08.353Z,100.00
2023-10-20T03:18:36.123Z,100.00
2023-10-20T03:21:04.563Z,100.00
2023-10-20T03:23:32.759Z,100.00
2023-10-20T03:26:00.355Z,100.00
2023-10-20T03:28:28.245Z,100.00
2023-10-20T03:30:56.168Z,100.00
2023-10-20T03:33:24.169Z,100.00
2023-10-20T03:36:04.642Z,100.00
2023-10-20T03:38:34.150Z,100.00
2023-10-20T03:41:08.915Z,100.00
2023-10-20T03:43:37.879Z,100.00
2023-10-20T03:46:07.416Z,100.00
2023-10-20T03:48:36.829Z,100.00
2023-10-20T03:51:08.815Z,100.00
2023-10-20T03:53:49.155Z,100.00
2023-10-20T03:56:20.474Z,100.00
2023-10-20T03:58:48.422Z,100.00
2023-10-20T04:01:16.420Z,100.00
2023-10-20T04:03:52.225Z,100.00
2023-10-20T04:06:21.580Z,100.00
2023-10-20T04:08:50.255Z,100.00
2023-10-20T04:11:18.305Z,100.00
2023-10-20T04:13:46.051Z,100.00
2023-10-20T04:16:17.754Z,100.00
2023-10-20T04:18:46.026Z,100.00
2023-10-20T04:21:13.753Z,100.00
2023-10-20T04:23:45.114Z,100.00
2023-10-20T04:26:22.601Z,100.00
2023-10-20T04:29:16.978Z,100.00
2023-10-20T04:32:09.702Z,100.00
2023-10-20T04:35:09.849Z,100.00
2023-10-20T04:37:56.226Z,100.00
2023-10-20T04:40:42.343Z,100.00
2023-10-20T04:43:15.998Z,100.00
2023-10-20T04:46:02.232Z,100.00
2023-10-20T04:48:52.686Z,100.00
2023-10-20T04:51:31.134Z,100.00
2023-10-20T04:54:23.656Z,100.00
2023-10-20T04:57:16.929Z,100.00
2023-10-20T04:59:45.707Z,100.00
2023-10-20T05:02:34.593Z,100.00
2023-10-20T05:05:02.774Z,100.00
2023-10-20T05:07:30.356Z,100.00
2023-10-20T05:09:58.424Z,100.00
2023-10-20T05:12:26.616Z,100.00
2023-10-20T05:14:54.272Z,100.00
2023-10-20T05:17:22.317Z,100.00
2023-10-20T05:19:50.829Z,100.00
2023-10-20T05:22:18.364Z,100.00
2023-10-20T05:24:46.104Z,100.00
2023-10-20T05:27:13.788Z,100.00
2023-10-20T05:29:43.771Z,100.00
2023-10-20T05:32:11.545Z,100.00
2023-10-20T05:34:39.143Z,100.00
2023-10-20T05:37:07.404Z,100.00
2023-10-20T05:39:36.125Z,100.00
2023-10-20T05:42:07.371Z,100.00
2023-10-20T05:44:39.228Z,100.00
2023-10-20T05:47:07.376Z,100.00
2023-10-20T05:49:38.649Z,100.00
2023-10-20T05:52:08.448Z,100.00
2023-10-20T05:54:42.128Z,98.99
2023-10-20T05:57:12.942Z,98.63
2023-10-20T05:59:42.449Z,96.94
2023-10-20T06:02:10.214Z,95.66
2023-10-20T06:04:48.705Z,94.55
2023-10-20T06:07:16.419Z,95.83
2023-10-20T06:09:44.369Z,97.29
2023-10-20T06:12:13.433Z,94.07
2023-10-20T06:14:40.964Z,93.79
2023-10-20T06:17:08.591Z,96.94
2023-10-20T06:19:37.135Z,97.74
2023-10-20T06:22:06.155Z,98.88
2023-10-20T06:24:34.615Z,97.91
2023-10-20T06:27:05.090Z,97.85
2023-10-20T06:29:32.991Z,98.06
2023-10-20T06:32:13.518Z,98.22
2023-10-20T06:34:44.124Z,96.45
2023-10-20T06:37:15.618Z,93.06
2023-10-20T06:39:43.393Z,91.15
2023-10-20T06:42:11.023Z,92.00
2023-10-20T06:44:38.626Z,91.78
2023-10-20T06:47:06.378Z,90.86
2023-10-20T06:49:34.469Z,91.17
2023-10-20T06:52:05.563Z,91.67
2023-10-20T06:54:34.076Z,89.97
2023-10-20T06:57:02.024Z,88.50
2023-10-20T06:59:29.743Z,86.86
2023-10-20T07:02:01.592Z,86.69
2023-10-20T07:04:30.500Z,84.85
2023-10-20T07:06:58.633Z,83.63
2023-10-20T07:09:28.213Z,84.41
2023-10-20T07:11:55.793Z,81.94
2023-10-20T07:14:23.538Z,83.78
2023-10-20T07:16:52.098Z,84.20
2023-10-20T07:19:19.668Z,83.34
2023-10-20T07:21:47.267Z,83.20
2023-10-20T07:24:14.884Z,83.53
2023-10-20T07:26:43.435Z,80.74
2023-10-20T07:29:11.331Z,80.96
2023-10-20T07:31:40.843Z,82.69
2023-10-20T07:34:11.040Z,82.74
2023-10-20T07:36:38.849Z,78.83
2023-10-20T07:39:09.829Z,81.23
2023-10-20T07:41:38.359Z,83.62
2023-10-20T07:44:06.177Z,83.30
2023-10-20T07:46:33.736Z,79.90
2023-10-20T07:49:01.402Z,78.02
2023-10-20T07:51:29.697Z,78.91
2023-10-20T07:53:57.322Z,79.86
2023-10-20T07:56:26.366Z,78.40
2023-10-20T07:58:54.333Z,79.15
2023-10-20T08:01:21.993Z,79.34
2023-10-20T08:03:50.488Z,77.80
2023-10-20T08:06:18.482Z,75.07
2023-10-20T08:08:47.221Z,77.75
2023-10-20T08:11:14.889Z,76.63
2023-10-20T08:13:42.537Z,75.90
2023-10-20T08:16:10.876Z,73.84
2023-10-20T08:18:38.691Z,71.16
2023-10-20T08:21:10.869Z,72.18
2023-10-20T08:23:39.837Z,69.24
2023-10-20T08:26:14.157Z,70.74
2023-10-20T08:28:41.791Z,68.63
2023-10-20T08:31:21.001Z,69.79
2023-10-20T08:33:49.870Z,69.74
2023-10-20T08:36:18.230Z,70.31
2023-10-20T08:38:48.940Z,66.17
2023-10-20T08:41:25.744Z,66.46
2023-10-20T08:43:54.815Z,66.52
2023-10-20T08:46:42.705Z,63.62
2023-10-20T08:49:11.484Z,64.51
2023-10-20T08:51:42.385Z,63.17
2023-10-20T08:54:10.390Z,62.57
2023-10-20T08:56:38.218Z,63.58
2023-10-20T08:59:06.887Z,61.66
2023-10-20T09:01:35.978Z,59.31
2023-10-20T09:04:06.147Z,55.99
2023-10-20T09:06:38.005Z,57.32
2023-10-20T09:09:07.345Z,56.82
2023-10-20T09:11:35.168Z,58.49
2023-10-20T09:14:03.961Z,57.08
2023-10-20T09:16:31.601Z,54.63
2023-10-20T09:18:59.752Z,55.49
2023-10-20T09:21:30.897Z,51.21
2023-10-20T09:24:04.798Z,53.26
2023-10-20T09:26:37.302Z,53.17
2023-10-20T09:29:09.344Z,55.62
2023-10-20T09:31:38.924Z,56.31
2023-10-20T09:34:08.369Z,55.05
2023-10-20T09:36:38.271Z,55.25
2023-10-20T09:39:09.812Z,55.10
2023-10-20T09:41:46.164Z,52.39
2023-10-20T09:44:35.210Z,51.59
2023-10-20T09:47:14.358Z,51.57
2023-10-20T09:49:44.505Z,49.43
2023-10-20T09:52:12.378Z,50.18
2023-10-20T09:54:40.660Z,50.61
2023-10-20T09:57:09.246Z,51.52
2023-10-20T09:59:40.365Z,51.52
2023-10-20T10:02:08.965Z,50.81
2023-10-20T10:04:42.703Z,48.59
2023-10-20T10:07:12.132Z,47.89
2023-10-20T10:09:44.762Z,48.04
2023-10-20T10:12:17.799Z,48.86
2023-10-20T10:15:24.035Z,47.73
2023-10-20T10:17:55.940Z,47.59
2023-10-20T10:20:30.031Z,48.74
2023-10-20T10:23:03.003Z,48.32
2023-10-20T10:25:46.989Z,49.06
2023-10-20T10:28:21.289Z,49.04
2023-10-20T10:30:53.989Z,46.63
2023-10-20T10:33:24.259Z,47.61
2023-10-20T10:36:11.694Z,47.65
2023-10-20T10:38:46.830Z,46.84
2023-10-20T10:41:14.651Z,46.47
2023-10-20T10:43:42.494Z,45.84
2023-10-20T10:46:13.312Z,45.80
2023-10-20T10:48:42.044Z,45.41
2023-10-20T10:51:09.622Z,45.19
2023-10-20T10:53:39.255Z,45.96
2023-10-20T10:56:07.868Z,45.57
2023-10-20T10:58:37.027Z,45.03
2023-10-20T11:01:05.101Z,44.68
2023-10-20T11:03:33.247Z,44.93
2023-10-20T11:06:01.456Z,44.19
2023-10-20T11:08:30.833Z,44.20
2023-10-20T11:11:00.378Z,44.61
2023-10-20T11:13:29.459Z,43.19
2023-10-20T11:15:57.225Z,43.16
2023-10-20T11:20:57.427Z,42.57
2023-10-20T11:23:35.461Z,42.16
2023-10-20T11:26:04.005Z,41.92
2023-10-20T11:28:31.766Z,40.65
2023-10-20T11:31:00.647Z,39.16
2023-10-20T11:33:29.118Z,39.79
2023-10-20T11:36:02.138Z,38.88
2023-10-20T11:38:30.369Z,39.31
2023-10-20T11:40:58.552Z,39.37
2023-10-20T11:43:27.260Z,39.22
2023-10-20T11:45:55.004Z,37.74
2023-10-20T11:48:23.319Z,38.18
2023-10-20T11:50:52.375Z,38.35
2023-10-20T11:53:23.353Z,35.89
2023-10-20T11:55:51.103Z,35.41
2023-10-20T11:58:19.356Z,35.68
2023-10-20T12:00:47.481Z,36.50
2023-10-20T12:03:16.477Z,36.33
2023-10-20T12:05:44.359Z,36.55
2023-10-20T12:08:12.921Z,35.77
2023-10-20T12:10:41.258Z,34.02
2023-10-20T12:13:09.755Z,33.67
2023-10-20T12:15:38.849Z,33.06
2023-10-20T12:18:09.234Z,32.46
2023-10-20T12:20:37.176Z,32.98
2023-10-20T12:23:07.416Z,32.95
2023-10-20T12:25:35.595Z,33.76
2023-10-20T12:28:03.910Z,34.36
2023-10-20T12:30:31.493Z,33.86
2023-10-20T12:32:59.597Z,34.41
2023-10-20T12:35:27.349Z,34.01
2023-10-20T12:37:57.967Z,33.30
2023-10-20T12:40:26.412Z,34.12
2023-10-20T12:42:54.099Z,33.39
2023-10-20T12:45:22.979Z,32.65
2023-10-20T12:47:50.604Z,33.25
2023-10-20T12:50:18.297Z,32.64
2023-10-20T12:52:45.870Z,32.93
2023-10-20T12:55:15.006Z,33.08
2023-10-20T12:57:42.903Z,32.44
2023-10-20T13:00:11.812Z,32.21
2023-10-20T13:02:39.688Z,32.76
2023-10-20T13:05:11.156Z,32.37
2023-10-20T13:07:39.194Z,31.16
2023-10-20T13:10:08.235Z,30.75
2023-10-20T13:12:38.138Z,29.78
2023-10-20T13:15:06.541Z,30.19
2023-10-20T13:17:34.768Z,30.02
2023-10-20T13:20:03.131Z,30.13
2023-10-20T13:22:31.627Z,29.99
2023-10-20T13:24:59.662Z,30.07
2023-10-20T13:27:31.320Z,29.46
2023-10-20T13:30:00.296Z,28.80
2023-10-20T13:32:28.822Z,28.78
2023-10-20T13:34:57.090Z,29.07
2023-10-20T13:37:24.773Z,27.83
2023-10-20T13:39:55.034Z,27.74
2023-10-20T13:42:23.536Z,28.45
2023-10-20T13:44:54.652Z,28.66
2023-10-20T13:47:22.387Z,27.78
2023-10-20T13:49:50.119Z,28.42
2023-10-20T13:52:18.995Z,28.16
2023-10-20T13:54:48.409Z,28.22
2023-10-20T13:57:16.796Z,28.36
2023-10-20T13:59:45.704Z,28.19
2023-10-20T14:02:15.724Z,28.63
2023-10-20T14:04:45.608Z,27.91
2023-10-20T14:07:13.840Z,27.29
2023-10-20T14:09:42.014Z,27.92
2023-10-20T14:12:09.795Z,27.40
2023-10-20T14:14:37.542Z,28.05
2023-10-20T14:17:13.711Z,28.46
2023-10-20T14:19:42.703Z,28.75
2023-10-20T14:22:11.722Z,28.92
2023-10-20T14:24:40.916Z,29.66
2023-10-20T14:27:10.549Z,28.57
2023-10-20T14:29:38.162Z,27.65
2023-10-20T14:32:06.036Z,28.43
2023-10-20T14:34:34.269Z,29.38
2023-10-20T14:37:03.012Z,29.50
2023-10-20T14:39:32.178Z,29.95
2023-10-20T14:41:59.968Z,30.50
2023-10-20T14:44:28.203Z,30.56
2023-10-20T14:47:00.608Z,30.67
2023-10-20T14:49:28.614Z,31.79
2023-10-20T14:51:56.372Z,32.96
2023-10-20T14:54:31.730Z,34.42
2023-10-20T14:56:59.553Z,35.32
2023-10-20T14:59:29.483Z,36.45
2023-10-20T15:02:02.108Z,38.36
2023-10-20T15:04:35.544Z,38.78
2023-10-20T15:07:06.275Z,39.67
2023-10-20T15:09:37.622Z,41.00
2023-10-20T15:12:08.821Z,41.50
2023-10-20T15:14:58.443Z,42.04
2023-10-20T15:17:30.251Z,42.75
2023-10-20T15:20:09.353Z,43.69
2023-10-20T15:22:41.779Z,44.86
2023-10-20T15:25:16.191Z,45.27
2023-10-20T15:27:44.029Z,46.46
2023-10-20T15:30:13.923Z,47.54
2023-10-20T15:32:48.424Z,46.86
2023-10-20T15:35:18.330Z,47.02
2023-10-20T15:37:48.411Z,47.62
2023-10-20T15:40:19.064Z,48.78
2023-10-20T15:42:51.673Z,48.88
2023-10-20T15:45:22.306Z,50.08
2023-10-20T15:47:53.725Z,50.90
2023-10-20T15:50:23.592Z,51.68
2023-10-20T15:52:51.718Z,52.64
2023-10-20T15:55:20.742Z,52.89
2023-10-20T15:57:54.043Z,53.32
2023-10-20T16:00:23.402Z,54.12
2023-10-20T16:02:54.514Z,54.58
2023-10-20T16:05:22.844Z,55.38
2023-10-20T16:07:54.218Z,55.33
2023-10-20T16:10:23.464Z,55.55
2023-10-20T16:12:53.829Z,56.00
2023-10-20T16:15:24.067Z,56.24
2023-10-20T16:17:56.324Z,57.99
2023-10-20T16:20:30.060Z,58.85
2023-10-20T16:23:07.806Z,59.98
2023-10-20T16:25:41.032Z,60.16
2023-10-20T16:28:10.052Z,60.31
2023-10-20T16:30:42.222Z,60.67
2023-10-20T16:33:12.201Z,61.24
2023-10-20T16:35:49.426Z,62.01
2023-10-20T16:38:18.667Z,63.11
2023-10-20T16:40:53.476Z,64.65
2023-10-20T16:43:23.529Z,65.65
2023-10-20T16:45:56.181Z,66.18
2023-10-20T16:48:26.559Z,66.85
2023-10-20T16:51:03.509Z,67.17
2023-10-20T16:53:33.236Z,67.25
2023-10-20T16:56:02.631Z,67.07
2023-10-20T16:58:32.556Z,67.27
2023-10-20T17:01:06.999Z,66.96
2023-10-20T17:03:36.657Z,67.40
2023-10-20T17:06:24.614Z,67.97
2023-10-20T17:08:53.597Z,67.60
2023-10-20T17:11:24.441Z,66.97
2023-10-20T17:13:53.333Z,67.34
2023-10-20T17:16:25.643Z,67.71
2023-10-20T17:18:55.837Z,67.76
2023-10-20T17:21:48.355Z,68.49
2023-10-20T17:24:17.128Z,68.49
2023-10-20T17:26:46.859Z,68.79
2023-10-20T17:29:15.706Z,69.54
2023-10-20T17:31:46.990Z,69.76
2023-10-20T17:34:15.152Z,69.44
2023-10-20T17:36:47.303Z,70.03
2023-10-20T17:39:22.074Z,70.60
2023-10-20T17:41:56.148Z,70.61
2023-10-20T17:44:24.728Z,70.96
2023-10-20T17:46:57.215Z,71.44
2023-10-20T17:49:26.760Z,71.52
2023-10-20T17:52:16.007Z,72.15
2023-10-20T17:54:48.360Z,72.53
2023-10-20T17:57:20.471Z,72.70
2023-10-20T17:59:52.054Z,72.87
2023-10-20T18:02:25.162Z,72.97
2023-10-20T18:04:58.607Z,73.79
2023-10-20T18:07:30.426Z,73.52
2023-10-20T18:10:01.878Z,73.70
2023-10-20T18:12:50.585Z,73.32
2023-10-20T18:15:22.089Z,73.55
2023-10-20T18:17:54.113Z,73.28
2023-10-20T18:20:25.326Z,73.51
2023-10-20T18:22:59.452Z,73.91
2023-10-20T18:25:30.327Z,74.77
2023-10-20T18:28:09.134Z,74.83
2023-10-20T18:30:43.238Z,74.98
2023-10-20T18:33:13.988Z,75.41
2023-10-20T18:36:05.352Z,75.47
2023-10-20T18:38:35.145Z,76.15
2023-10-20T18:41:04.543Z,76.19
2023-10-20T18:43:34.997Z,75.95
2023-10-20T18:46:26.147Z,76.62
2023-10-20T18:49:04.938Z,76.89
2023-10-20T18:51:36.277Z,77.03
2023-10-20T18:54:27.141Z,77.19
2023-10-20T18:56:56.151Z,77.81
2023-10-20T18:59:25.573Z,77.57
2023-10-20T19:02:03.726Z,78.17
2023-10-20T19:04:36.591Z,77.31
2023-10-20T19:07:09.340Z,76.82
2023-10-20T19:09:43.872Z,77.68
2023-10-20T19:12:14.123Z,78.95
2023-10-20T19:14:42.239Z,79.06
2023-10-20T19:17:10.985Z,79.50
2023-10-20T19:19:43.361Z,79.59
2023-10-20T19:22:14.125Z,79.42
2023-10-20T19:24:45.014Z,80.08
2023-10-20T19:27:14.350Z,80.06
2023-10-20T19:29:42.466Z,80.25
2023-10-20T19:32:10.330Z,80.68
2023-10-20T19:34:39.595Z,80.54
2023-10-20T19:37:07.499Z,81.16
2023-10-20T19:39:37.621Z,81.38
2023-10-20T19:42:09.370Z,82.17
2023-10-20T19:44:41.023Z,81.65
2023-10-20T19:47:11.460Z,80.70
2023-10-20T19:49:40.256Z,82.12
2023-10-20T19:52:08.498Z,82.11
2023-10-20T19:54:37.044Z,82.99
2023-10-20T19:57:05.251Z,83.29
2023-10-20T19:59:33.738Z,83.47
2023-10-20T20:02:03.434Z,83.25
2023-10-20T20:04:34.263Z,84.35
2023-10-20T20:07:04.213Z,85.13
2023-10-20T20:09:32.245Z,85.61
2023-10-20T20:12:00.717Z,85.13
2023-10-20T20:14:28.662Z,85.84
2023-10-20T20:16:57.127Z,85.47
2023-10-20T20:19:25.205Z,85.97
2023-10-20T20:21:53.059Z,87.00
2023-10-20T20:24:23.629Z,87.86
2023-10-20T20:26:52.259Z,87.44
2023-10-20T20:29:19.891Z,87.82
2023-10-20T20:31:47.661Z,87.07
2023-10-20T20:34:20.619Z,87.84
2023-10-20T20:36:50.990Z,87.52
2023-10-20T20:39:19.647Z,87.89
2023-10-20T20:41:54.534Z,88.66
2023-10-20T20:44:22.519Z,89.11
2023-10-20T20:46:52.390Z,89.01
2023-10-20T20:49:20.053Z,88.91
2023-10-20T20:51:47.964Z,89.21
2023-10-20T20:54:16.827Z,90.82
2023-10-20T20:56:47.093Z,90.93
2023-10-20T20:59:14.749Z,90.01
2023-10-20T21:01:42.439Z,90.19
2023-10-20T21:04:10.097Z,89.61
2023-10-20T21:06:37.857Z,89.61
2023-10-20T21:09:08.494Z,89.91
2023-10-20T21:11:37.903Z,89.05
2023-10-20T21:14:09.658Z,89.58
2023-10-20T21:16:40.444Z,90.69
2023-10-20T21:19:09.474Z,90.31
2023-10-20T21:21:38.363Z,90.14
2023-10-20T21:24:10.421Z,89.58
2023-10-20T21:26:41.046Z,89.73
2023-10-20T21:29:11.713Z,90.35
2023-10-20T21:31:40.220Z,89.75
2023-10-20T21:34:10.389Z,90.29
2023-10-20T21:36:38.189Z,90.18
2023-10-20T21:39:11.434Z,89.83
2023-10-20T21:41:41.425Z,90.56
2023-10-20T21:44:12.507Z,90.75
2023-10-20T21:46:42.884Z,91.10
2023-10-20T21:49:10.751Z,91.22
2023-10-20T21:51:40.149Z,91.20
2023-10-20T21:54:08.452Z,90.89
2023-10-20T21:56:36.840Z,90.69
2023-10-20T21:59:04.816Z,91.14
2023-10-20T22:01:32.429Z,91.64
2023-10-20T22:04:00.190Z,91.52
2023-10-20T22:06:27.951Z,91.60
2023-10-20T22:08:55.627Z,91.45
2023-10-20T22:11:23.333Z,91.39
2023-10-20T22:13:50.956Z,91.08
2023-10-20T22:16:18.656Z,91.16
2023-10-20T22:18:49.884Z,91.40
2023-10-20T22:21:17.749Z,91.11
2023-10-20T22:23:45.539Z,91.98
2023-10-20T22:26:13.320Z,91.94
2023-10-20T22:28:40.996Z,91.88
2023-10-20T22:31:10.412Z,92.63
2023-10-20T22:33:38.375Z,93.65
2023-10-20T22:36:06.468Z,93.88
2023-10-20T22:38:34.291Z,93.22
2023-10-20T22:41:02.733Z,93.82
2023-10-20T22:43:30.320Z,94.23
2023-10-20T22:46:02.528Z,93.46
2023-10-20T22:48:30.521Z,94.38
2023-10-20T22:50:58.145Z,94.83
2023-10-20T22:53:25.714Z,94.80
2023-10-20T22:55:53.293Z,95.18
2023-10-20T22:58:20.839Z,95.15
2023-10-20T23:00:48.421Z,95.15
2023-10-20T23:03:16.130Z,94.95
2023-10-20T23:05:43.912Z,94.79
2023-10-20T23:08:11.542Z,94.88
2023-10-20T23:10:39.185Z,95.44
2023-10-20T23:13:07.738Z,95.63
2023-10-20T23:15:42.834Z,95.01
2023-10-20T23:18:11.509Z,94.81
2023-10-20T23:20:39.973Z,95.36
2023-10-20T23:23:07.787Z,95.05
2023-10-20T23:25:36.236Z,95.57
2023-10-20T23:28:04.833Z,95.60
2023-10-20T23:30:32.380Z,95.67
2023-10-20T23:33:00.221Z,96.46
2023-10-20T23:35:27.952Z,94.96
2023-10-20T23:37:55.560Z,96.40
2023-10-20T23:40:27.095Z,96.26
2023-10-20T23:42:54.631Z,95.78
2023-10-20T23:45:22.839Z,96.67
2023-10-20T23:47:51.001Z,96.56
2023-10-20T23:50:18.721Z,96.25
2023-10-20T23:52:46.241Z,96.35
2023-10-20T23:55:13.907Z,96.93
2023-10-20T23:57:41.490Z,96.85
